createdAt,value
2019-05-19T00:00:15.525Z,50.50
2019-05-19T00:02:45.056Z,50.60
2019-05-19T00:05:14.864Z,50.50
2019-05-19T00:07:44.347Z,50.50
2019-05-19T00:10:14.057Z,50.50
2019-05-19T00:12:43.552Z,50.50
2019-05-19T00:15:13.186Z,50.50
2019-05-19T00:17:42.670Z,50.50
2019-05-19T00:20:12.365Z,50.50
2019-05-19T00:22:41.864Z,50.60
2019-05-19T00:25:11.385Z,50.60
2019-05-19T00:27:42.245Z,50.50
2019-05-19T00:30:11.840Z,50.50
2019-05-19T00:32:41.393Z,50.60
2019-05-19T00:35:11.020Z,50.20
2019-05-19T00:37:40.500Z,50.50
2019-05-19T00:40:10.187Z,50.50
2019-05-19T00:42:39.673Z,50.50
2019-05-19T00:45:09.476Z,50.50
2019-05-19T00:47:39.132Z,50.50
2019-05-19T00:50:08.663Z,51.20
2019-05-19T00:52:38.153Z,50.50
2019-05-19T00:55:07.783Z,50.50
2019-05-19T00:57:38.179Z,50.50
2019-05-19T01:00:11.974Z,50.60
2019-05-19T01:02:41.625Z,50.50
2019-05-19T01:05:11.158Z,50.60
2019-05-19T01:07:40.644Z,50.40
2019-05-19T01:10:10.453Z,50.50
2019-05-19T01:12:40.009Z,50.30
2019-05-19T01:15:10.544Z,50.40
2019-05-19T01:17:40.296Z,50.40
2019-05-19T01:20:10.110Z,50.50
2019-05-19T01:22:39.765Z,50.40
2019-05-19T01:25:09.447Z,50.60
2019-05-19T01:27:39.230Z,50.60
2019-05-19T01:30:10.326Z,50.70
2019-05-19T01:32:39.858Z,50.60
2019-05-19T01:35:09.751Z,50.80
2019-05-19T01:37:39.258Z,50.70
2019-05-19T01:40:09.251Z,50.60
2019-05-19T01:42:38.732Z,50.70
2019-05-19T01:45:09.525Z,51.20
2019-05-19T01:47:39.109Z,51.00
2019-05-19T01:50:17.634Z,51.00
2019-05-19T01:52:41.061Z,51.10
2019-05-19T01:55:11.560Z,51.00
2019-05-19T01:57:41.037Z,50.90
2019-05-19T02:00:12.436Z,50.90
2019-05-19T02:02:41.905Z,50.90
2019-05-19T02:05:11.611Z,50.90
2019-05-19T02:07:41.092Z,51.00
2019-05-19T02:10:11.006Z,51.00
2019-05-19T02:12:40.473Z,51.00
2019-05-19T02:15:10.425Z,51.00
2019-05-19T02:17:39.910Z,51.00
2019-05-19T02:20:10.132Z,51.00
2019-05-19T02:22:40.576Z,51.00
2019-05-19T02:25:10.733Z,50.90
2019-05-19T02:27:40.193Z,50.90
2019-05-19T02:30:10.385Z,50.80
2019-05-19T02:32:39.824Z,50.80
2019-05-19T02:35:09.355Z,50.80
2019-05-19T02:37:38.858Z,50.90
2019-05-19T02:40:08.937Z,50.80
2019-05-19T02:42:43.119Z,50.90
2019-05-19T02:45:12.912Z,50.80
2019-05-19T02:47:44.865Z,50.80
2019-05-19T02:50:14.752Z,50.70
2019-05-19T02:52:46.576Z,50.80
2019-05-19T02:55:18.825Z,50.80
2019-05-19T02:57:50.798Z,50.80
2019-05-19T03:00:23.325Z,50.70
2019-05-19T03:02:52.809Z,50.70
2019-05-19T03:05:22.389Z,50.70
2019-05-19T03:07:51.868Z,50.70
2019-05-19T03:10:21.331Z,50.70
2019-05-19T03:12:50.887Z,50.70
2019-05-19T03:15:20.319Z,50.70
2019-05-19T03:17:49.824Z,50.70
2019-05-19T03:20:19.353Z,50.70
2019-05-19T03:22:48.823Z,50.70
2019-05-19T03:25:18.371Z,50.70
2019-05-19T03:27:47.901Z,50.60
2019-05-19T03:30:31.365Z,50.70
2019-05-19T03:33:05.240Z,50.60
2019-05-19T03:35:35.297Z,50.60
2019-05-19T03:38:04.948Z,50.60
2019-05-19T03:40:34.422Z,50.60
2019-05-19T03:43:03.903Z,50.50
2019-05-19T03:45:33.377Z,50.50
2019-05-19T03:48:02.828Z,50.50
2019-05-19T03:50:32.283Z,50.50
2019-05-19T03:53:01.748Z,50.50
2019-05-19T03:55:31.197Z,51.30
2019-05-19T03:58:00.647Z,50.90
2019-05-19T04:00:30.099Z,50.70
2019-05-19T04:02:59.557Z,50.60
2019-05-19T04:05:29.008Z,51.30
2019-05-19T04:07:58.472Z,50.70
2019-05-19T04:10:27.918Z,50.70
2019-05-19T04:12:57.379Z,50.70
2019-05-19T04:15:26.835Z,51.10
2019-05-19T04:17:56.297Z,50.60
2019-05-19T04:20:25.762Z,50.70
2019-05-19T04:22:55.207Z,50.60
2019-05-19T04:25:24.667Z,50.70
2019-05-19T04:27:54.130Z,50.60
2019-05-19T04:30:23.598Z,50.70
2019-05-19T04:32:53.053Z,50.60
2019-05-19T04:35:23.571Z,50.50
2019-05-19T04:37:53.024Z,50.50
2019-05-19T04:40:22.478Z,50.50
2019-05-19T04:42:51.938Z,50.50
2019-05-19T04:45:21.396Z,50.50
2019-05-19T04:47:50.855Z,50.60
2019-05-19T04:50:20.311Z,50.50
2019-05-19T04:52:49.777Z,50.60
2019-05-19T04:55:19.224Z,50.60
2019-05-19T04:57:48.677Z,50.60
2019-05-19T05:00:18.492Z,50.50
2019-05-19T05:02:47.928Z,50.60
2019-05-19T05:05:17.557Z,50.50
2019-05-19T05:07:47.013Z,50.50
2019-05-19T05:10:17.006Z,50.50
2019-05-19T05:12:46.463Z,50.50
2019-05-19T05:15:17.176Z,50.60
2019-05-19T05:17:47.690Z,50.50
2019-05-19T05:20:17.384Z,50.50
2019-05-19T05:22:46.851Z,50.50
2019-05-19T05:25:16.379Z,50.60
2019-05-19T05:27:45.847Z,50.50
2019-05-19T05:30:15.539Z,50.50
2019-05-19T05:32:45.001Z,50.40
2019-05-19T05:35:14.521Z,50.40
2019-05-19T05:37:43.980Z,50.50
2019-05-19T05:40:13.647Z,50.50
2019-05-19T05:42:43.091Z,50.60
2019-05-19T05:45:12.819Z,50.60
2019-05-19T05:47:42.276Z,50.50
2019-05-19T05:50:12.872Z,50.50
2019-05-19T05:52:42.327Z,50.60
2019-05-19T05:55:11.939Z,51.20
2019-05-19T05:57:41.400Z,50.60
2019-05-19T06:00:11.278Z,50.60
2019-05-19T06:02:40.736Z,50.60
2019-05-19T06:05:10.435Z,50.60
2019-05-19T06:07:39.899Z,50.60
2019-05-19T06:10:09.695Z,50.70
2019-05-19T06:12:39.146Z,50.60
2019-05-19T06:15:09.040Z,50.60
2019-05-19T06:17:38.495Z,50.70
2019-05-19T06:20:08.611Z,50.60
2019-05-19T06:22:54.496Z,50.60
2019-05-19T06:25:10.192Z,50.60
2019-05-19T06:27:39.639Z,50.70
2019-05-19T06:30:09.659Z,50.70
2019-05-19T06:32:47.075Z,50.70
2019-05-19T06:35:16.973Z,50.60
2019-05-19T06:37:46.418Z,50.70
2019-05-19T06:40:16.018Z,50.70
2019-05-19T06:42:45.476Z,50.70
2019-05-19T06:45:15.270Z,50.70
2019-05-19T06:47:44.899Z,50.70
2019-05-19T06:50:16.190Z,50.70
2019-05-19T06:52:45.643Z,50.70
2019-05-19T06:55:15.328Z,50.70
2019-05-19T06:57:44.859Z,50.70
2019-05-19T07:00:14.779Z,50.80
2019-05-19T07:02:44.238Z,50.80
2019-05-19T07:05:13.789Z,50.70
2019-05-19T07:07:43.249Z,50.70
2019-05-19T07:10:13.947Z,50.90
2019-05-19T07:12:43.402Z,51.20
2019-05-19T07:15:13.099Z,51.10
2019-05-19T07:17:42.547Z,51.20
2019-05-19T07:20:12.244Z,51.30
2019-05-19T07:22:41.698Z,51.40
2019-05-19T07:25:12.859Z,51.30
2019-05-19T07:27:42.398Z,51.00
2019-05-19T07:30:12.116Z,51.00
2019-05-19T07:32:41.586Z,51.10
2019-05-19T07:35:11.378Z,51.00
2019-05-19T07:37:40.840Z,50.80
2019-05-19T07:40:10.829Z,50.70
2019-05-19T07:42:40.286Z,50.70
2019-05-19T07:45:10.278Z,50.60
2019-05-19T07:47:39.741Z,50.60
2019-05-19T07:50:10.027Z,50.60
2019-05-19T07:52:39.486Z,50.40
2019-05-19T07:55:09.280Z,50.50
2019-05-19T07:57:38.743Z,50.50
2019-05-19T08:00:09.781Z,50.50
2019-05-19T08:02:39.280Z,50.50
2019-05-19T08:05:09.636Z,50.30
2019-05-19T08:07:39.483Z,50.30
2019-05-19T08:10:09.275Z,50.10
2019-05-19T08:12:38.734Z,50.00
2019-05-19T08:15:09.137Z,49.80
2019-05-19T08:17:38.592Z,49.70
2019-05-19T08:20:08.714Z,49.70
2019-05-19T08:22:38.150Z,49.70
2019-05-19T08:25:08.247Z,49.30
2019-05-19T08:27:37.780Z,49.50
2019-05-19T08:30:09.062Z,49.10
2019-05-19T08:32:38.595Z,49.20
2019-05-19T08:35:08.786Z,49.00
2019-05-19T08:37:38.239Z,48.80
2019-05-19T08:40:07.971Z,49.10
2019-05-19T08:42:37.516Z,48.90
2019-05-19T08:45:12.052Z,48.60
2019-05-19T08:47:41.583Z,48.70
2019-05-19T08:50:12.274Z,48.70
2019-05-19T08:52:41.735Z,48.90
2019-05-19T08:55:11.731Z,48.70
2019-05-19T08:57:41.182Z,48.90
2019-05-19T09:00:11.070Z,49.00
2019-05-19T09:02:40.535Z,49.10
2019-05-19T09:05:10.736Z,49.00
2019-05-19T09:07:40.195Z,49.10
2019-05-19T09:10:10.805Z,49.50
2019-05-19T09:12:40.254Z,49.40
2019-05-19T09:15:09.962Z,49.60
2019-05-19T09:17:39.418Z,49.50
2019-05-19T09:20:08.937Z,49.40
2019-05-19T09:22:38.467Z,49.00
2019-05-19T09:25:08.461Z,48.10
2019-05-19T09:27:38.296Z,49.10
2019-05-19T09:30:10.583Z,48.60
2019-05-19T09:32:40.041Z,48.00
2019-05-19T09:35:09.836Z,47.60
2019-05-19T09:37:39.303Z,47.60
2019-05-19T09:40:08.999Z,47.50
2019-05-19T09:42:38.471Z,47.40
2019-05-19T09:45:08.924Z,47.70
2019-05-19T09:47:38.569Z,47.80
2019-05-19T09:50:08.778Z,47.70
2019-05-19T09:52:38.411Z,47.90
2019-05-19T09:55:08.510Z,47.80
2019-05-19T09:57:38.228Z,47.90
2019-05-19T10:00:07.866Z,47.90
2019-05-19T10:02:37.388Z,47.70
2019-05-19T10:05:07.843Z,47.30
2019-05-19T10:07:37.496Z,47.50
2019-05-19T10:10:18.623Z,47.60
2019-05-19T10:12:48.091Z,47.80
2019-05-19T10:15:18.051Z,47.70
2019-05-19T10:17:47.506Z,47.70
2019-05-19T10:20:17.675Z,47.90
2019-05-19T10:22:47.251Z,47.80
2019-05-19T10:25:22.245Z,47.80
2019-05-19T10:27:48.151Z,47.70
2019-05-19T10:30:17.676Z,47.40
2019-05-19T10:32:47.130Z,47.00
2019-05-19T10:35:17.123Z,46.50
2019-05-19T10:37:46.578Z,46.00
2019-05-19T10:40:16.268Z,46.00
2019-05-19T10:42:45.880Z,46.40
2019-05-19T10:45:15.743Z,46.60
2019-05-19T10:47:45.211Z,46.60
2019-05-19T10:50:14.691Z,46.60
2019-05-19T10:52:44.141Z,46.10
2019-05-19T10:55:13.895Z,45.90
2019-05-19T10:57:43.354Z,46.90
2019-05-19T11:00:12.955Z,45.20
2019-05-19T11:02:42.418Z,45.30
2019-05-19T11:05:12.446Z,44.60
2019-05-19T11:07:41.958Z,44.70
2019-05-19T11:10:11.639Z,45.20
2019-05-19T11:12:41.106Z,45.60
2019-05-19T11:15:12.200Z,45.20
2019-05-19T11:17:41.659Z,45.70
2019-05-19T11:20:11.355Z,46.00
2019-05-19T11:22:40.837Z,46.30
2019-05-19T11:25:10.367Z,46.80
2019-05-19T11:27:39.826Z,46.90
2019-05-19T11:30:09.636Z,46.80
2019-05-19T11:32:39.093Z,45.80
2019-05-19T11:35:08.628Z,45.60
2019-05-19T11:37:38.087Z,44.60
2019-05-19T11:40:07.718Z,45.10
2019-05-19T11:42:37.213Z,45.90
2019-05-19T11:45:08.184Z,45.60
2019-05-19T11:47:37.637Z,45.60
2019-05-19T11:50:07.191Z,45.50
2019-05-19T11:52:36.646Z,45.50
2019-05-19T11:55:06.793Z,45.20
2019-05-19T11:57:36.255Z,45.30
2019-05-19T12:00:07.180Z,45.30
2019-05-19T12:02:36.687Z,45.30
2019-05-19T12:05:07.438Z,45.30
2019-05-19T12:07:36.891Z,45.30
2019-05-19T12:10:06.689Z,45.50
2019-05-19T12:12:36.165Z,45.40
2019-05-19T12:15:09.234Z,45.60
2019-05-19T12:17:38.754Z,45.40
2019-05-19T12:20:08.494Z,45.30
2019-05-19T12:22:37.947Z,45.00
2019-05-19T12:25:08.051Z,44.70
2019-05-19T12:27:37.662Z,44.70
2019-05-19T12:30:07.966Z,44.60
2019-05-19T12:32:37.494Z,44.50
2019-05-19T12:35:07.715Z,44.60
2019-05-19T12:37:37.426Z,44.50
2019-05-19T12:40:07.317Z,44.00
2019-05-19T12:42:36.832Z,44.30
2019-05-19T12:45:07.952Z,44.40
2019-05-19T12:47:37.490Z,44.40
2019-05-19T12:50:08.079Z,44.20
2019-05-19T12:52:37.842Z,44.60
2019-05-19T12:55:07.678Z,44.40
2019-05-19T12:57:37.159Z,44.40
2019-05-19T13:00:07.864Z,44.60
2019-05-19T13:02:38.290Z,44.60
2019-05-19T13:05:08.348Z,44.70
2019-05-19T13:07:38.050Z,44.80
2019-05-19T13:10:08.739Z,44.80
2019-05-19T13:12:38.191Z,44.70
2019-05-19T13:15:09.078Z,44.80
2019-05-19T13:17:39.502Z,44.80
2019-05-19T13:20:09.170Z,44.60
2019-05-19T13:22:38.685Z,44.80
2019-05-19T13:25:08.702Z,44.90
2019-05-19T13:27:38.375Z,45.10
2019-05-19T13:30:08.543Z,45.70
2019-05-19T13:32:38.200Z,45.80
2019-05-19T13:35:07.914Z,45.70
2019-05-19T13:37:37.654Z,46.10
2019-05-19T13:40:07.450Z,46.20
2019-05-19T13:42:36.978Z,46.20
2019-05-19T13:45:10.485Z,46.40
2019-05-19T13:47:40.915Z,46.20
2019-05-19T13:50:10.714Z,46.10
2019-05-19T13:52:40.273Z,46.20
2019-05-19T13:55:10.210Z,45.60
2019-05-19T13:57:39.812Z,45.60
2019-05-19T14:00:11.807Z,45.10
2019-05-19T14:02:41.618Z,45.70
2019-05-19T14:05:11.528Z,45.70
2019-05-19T14:07:41.046Z,45.40
2019-05-19T14:10:12.418Z,45.50
2019-05-19T14:12:42.064Z,45.40
2019-05-19T14:15:11.745Z,45.20
2019-05-19T14:17:41.484Z,45.50
2019-05-19T14:20:11.054Z,45.30
2019-05-19T14:22:40.553Z,45.50
2019-05-19T14:25:10.212Z,45.50
2019-05-19T14:27:39.834Z,45.60
2019-05-19T14:30:09.959Z,45.70
2019-05-19T14:32:39.973Z,45.20
2019-05-19T14:35:11.087Z,45.40
2019-05-19T14:37:40.678Z,45.40
2019-05-19T14:40:11.473Z,45.50
2019-05-19T14:42:42.602Z,45.50
2019-05-19T14:45:12.751Z,45.50
2019-05-19T14:47:43.462Z,45.70
2019-05-19T14:50:13.191Z,45.80
2019-05-19T14:52:42.734Z,46.00
2019-05-19T14:55:13.104Z,46.00
2019-05-19T14:57:45.341Z,46.20
2019-05-19T15:00:14.685Z,46.30
2019-05-19T15:02:44.266Z,46.30
2019-05-19T15:05:14.409Z,46.30
2019-05-19T15:07:44.035Z,46.10
2019-05-19T15:10:14.439Z,46.00
2019-05-19T15:12:44.125Z,46.00
2019-05-19T15:15:13.789Z,46.20
2019-05-19T15:17:43.529Z,46.20
2019-05-19T15:20:13.479Z,46.30
2019-05-19T15:22:44.289Z,46.40
2019-05-19T15:25:14.646Z,46.60
2019-05-19T15:27:58.931Z,46.50
2019-05-19T15:30:15.812Z,46.60
2019-05-19T15:32:45.906Z,46.60
2019-05-19T15:35:15.900Z,46.50
2019-05-19T15:37:45.507Z,46.40
2019-05-19T15:40:15.769Z,45.90
2019-05-19T15:42:45.328Z,45.80
2019-05-19T15:45:14.843Z,45.80
2019-05-19T15:47:44.379Z,45.60
2019-05-19T15:50:13.966Z,45.60
2019-05-19T15:52:43.442Z,45.50
2019-05-19T15:55:12.984Z,45.60
2019-05-19T15:57:42.478Z,45.70
2019-05-19T16:00:12.367Z,45.70
2019-05-19T16:02:42.007Z,45.90
2019-05-19T16:05:11.907Z,45.90
2019-05-19T16:07:41.442Z,46.50
2019-05-19T16:10:11.063Z,46.10
2019-05-19T16:12:40.523Z,46.30
2019-05-19T16:15:10.522Z,46.60
2019-05-19T16:17:39.989Z,46.60
2019-05-19T16:20:09.702Z,46.70
2019-05-19T16:22:39.249Z,46.80
2019-05-19T16:25:09.311Z,47.00
2019-05-19T16:27:39.312Z,47.00
2019-05-19T16:30:09.479Z,47.20
2019-05-19T16:32:39.335Z,47.10
2019-05-19T16:35:09.168Z,47.20
2019-05-19T16:37:38.688Z,47.10
2019-05-19T16:40:08.978Z,47.00
2019-05-19T16:42:38.435Z,46.40
2019-05-19T16:45:08.753Z,46.30
2019-05-19T16:47:38.207Z,46.60
2019-05-19T16:50:08.435Z,46.60
2019-05-19T16:52:37.977Z,46.70
2019-05-19T16:55:27.480Z,47.20
2019-05-19T16:57:56.936Z,47.40
2019-05-19T17:00:27.687Z,47.60
2019-05-19T17:02:57.211Z,47.50
2019-05-19T17:05:26.751Z,47.70
2019-05-19T17:07:56.210Z,47.70
2019-05-19T17:10:25.711Z,47.70
2019-05-19T17:12:55.181Z,47.60
2019-05-19T17:15:24.830Z,47.60
2019-05-19T17:17:54.355Z,47.80
2019-05-19T17:20:23.988Z,47.80
2019-05-19T17:22:53.507Z,47.90
2019-05-19T17:25:23.115Z,48.50
2019-05-19T17:27:52.721Z,47.80
2019-05-19T17:30:22.712Z,47.90
2019-05-19T17:32:52.160Z,47.80
2019-05-19T17:35:21.622Z,47.90
2019-05-19T17:37:51.077Z,47.90
2019-05-19T17:40:20.689Z,47.90
2019-05-19T17:42:50.139Z,47.90
2019-05-19T17:45:19.731Z,48.50
2019-05-19T17:47:49.187Z,48.50
2019-05-19T17:50:21.779Z,48.60
2019-05-19T17:52:51.251Z,48.50
2019-05-19T17:55:20.682Z,48.50
2019-05-19T17:57:50.336Z,48.60
2019-05-19T18:00:22.892Z,48.50
2019-05-19T18:02:52.403Z,48.60
2019-05-19T18:05:21.956Z,49.20
2019-05-19T18:07:51.523Z,49.30
2019-05-19T18:10:22.040Z,48.80
2019-05-19T18:12:51.543Z,48.90
2019-05-19T18:15:22.567Z,48.80
2019-05-19T18:17:52.061Z,48.90
2019-05-19T18:20:24.143Z,48.90
2019-05-19T18:22:52.817Z,49.00
2019-05-19T18:25:22.522Z,49.10
2019-05-19T18:27:53.036Z,49.40
2019-05-19T18:30:22.487Z,49.40
2019-05-19T18:32:52.000Z,49.40
2019-05-19T18:35:21.423Z,49.40
2019-05-19T18:37:50.983Z,49.40
2019-05-19T18:40:20.504Z,50.00
2019-05-19T18:42:50.024Z,49.40
2019-05-19T18:45:19.851Z,49.40
2019-05-19T18:47:49.313Z,49.50
2019-05-19T18:50:19.044Z,49.70
2019-05-19T18:52:48.488Z,50.40
2019-05-19T18:55:17.969Z,50.00
2019-05-19T18:58:07.892Z,49.90
2019-05-19T19:00:38.484Z,49.90
2019-05-19T19:03:21.904Z,50.30
2019-05-19T19:08:54.035Z,49.90
2019-05-19T19:11:21.903Z,50.00
2019-05-19T19:13:51.387Z,50.00
2019-05-19T19:16:20.879Z,50.10
2019-05-19T19:18:50.356Z,50.10
2019-05-19T19:21:19.841Z,50.10
2019-05-19T19:23:49.288Z,50.20
2019-05-19T19:26:18.839Z,50.10
2019-05-19T19:28:48.354Z,50.20
2019-05-19T19:31:17.783Z,50.20
2019-05-19T19:33:47.247Z,50.20
2019-05-19T19:36:16.823Z,50.20
2019-05-19T19:38:46.371Z,50.30
2019-05-19T19:41:15.847Z,51.00
2019-05-19T19:43:45.316Z,50.80
2019-05-19T19:46:14.792Z,50.70
2019-05-19T19:48:44.247Z,51.00
2019-05-19T19:51:13.726Z,51.10
2019-05-19T19:53:43.267Z,50.80
2019-05-19T19:56:12.727Z,50.80
2019-05-19T19:58:42.180Z,50.70
2019-05-19T20:01:11.692Z,50.70
2019-05-19T20:03:41.127Z,50.80
2019-05-19T20:06:10.604Z,50.80
2019-05-19T20:08:40.135Z,51.40
2019-05-19T20:11:10.577Z,51.30
2019-05-19T20:13:40.030Z,51.20
2019-05-19T20:16:10.471Z,51.10
2019-05-19T20:18:39.924Z,51.10
2019-05-19T20:21:09.438Z,51.10
2019-05-19T20:23:38.912Z,51.00
2019-05-19T20:26:08.375Z,51.10
2019-05-19T20:28:37.811Z,51.30
2019-05-19T20:31:07.365Z,51.20
2019-05-19T20:33:36.816Z,51.40
2019-05-19T20:36:06.282Z,51.30
2019-05-19T20:38:35.759Z,52.40
2019-05-19T20:41:05.248Z,51.80
2019-05-19T20:43:34.682Z,51.60
2019-05-19T20:46:04.218Z,51.60
2019-05-19T20:48:33.780Z,51.40
2019-05-19T20:51:03.238Z,51.30
2019-05-19T20:53:32.682Z,51.20
2019-05-19T20:56:02.335Z,51.20
2019-05-19T20:58:32.002Z,51.10
2019-05-19T21:01:01.471Z,51.20
2019-05-19T21:03:30.995Z,51.10
2019-05-19T21:06:00.462Z,51.10
2019-05-19T21:08:29.961Z,51.20
2019-05-19T21:10:59.962Z,51.10
2019-05-19T21:13:29.411Z,51.10
2019-05-19T21:15:58.865Z,51.10
2019-05-19T21:18:28.311Z,51.20
2019-05-19T21:20:57.763Z,51.10
2019-05-19T21:23:27.223Z,51.00
2019-05-19T21:25:56.687Z,51.10
2019-05-19T21:28:26.210Z,51.00
2019-05-19T21:31:05.320Z,51.00
2019-05-19T21:33:26.767Z,51.10
2019-05-19T21:35:56.215Z,51.00
2019-05-19T21:38:25.698Z,51.10
2019-05-19T21:40:55.152Z,51.00
2019-05-19T21:43:24.670Z,51.10
2019-05-19T21:45:54.132Z,51.10
2019-05-19T21:48:35.882Z,51.00
2019-05-19T21:51:05.327Z,51.00
2019-05-19T21:53:34.878Z,51.00
2019-05-19T21:56:04.498Z,51.00
2019-05-19T21:58:33.960Z,51.00
2019-05-19T22:01:04.445Z,51.00
2019-05-19T22:03:33.987Z,51.00
2019-05-19T22:06:03.424Z,51.00
2019-05-19T22:08:32.876Z,51.10
2019-05-19T22:11:04.554Z,51.00
2019-05-19T22:13:33.398Z,51.10
2019-05-19T22:16:12.196Z,51.00
2019-05-19T22:18:34.099Z,51.00
2019-05-19T22:21:04.622Z,51.00
2019-05-19T22:23:35.041Z,51.00
2019-05-19T22:26:04.495Z,50.90
2019-05-19T22:28:33.953Z,51.00
2019-05-19T22:31:03.480Z,51.00
2019-05-19T22:33:32.936Z,51.00
2019-05-19T22:36:02.387Z,50.90
2019-05-19T22:38:31.848Z,50.90
2019-05-19T22:41:01.299Z,50.90
2019-05-19T22:43:30.778Z,50.90
2019-05-19T22:46:00.227Z,50.90
2019-05-19T22:48:30.768Z,50.90
2019-05-19T22:51:00.229Z,50.90
2019-05-19T22:53:32.546Z,50.90
2019-05-19T22:56:00.771Z,50.90
2019-05-19T22:58:30.198Z,50.90
2019-05-19T23:00:59.655Z,50.90
2019-05-19T23:03:29.112Z,50.80
2019-05-19T23:05:58.567Z,50.90
2019-05-19T23:08:28.016Z,50.80
2019-05-19T23:10:57.463Z,50.80
2019-05-19T23:13:26.907Z,50.80
2019-05-19T23:15:56.428Z,50.80
2019-05-19T23:18:25.890Z,50.80
2019-05-19T23:20:55.339Z,50.80
2019-05-19T23:23:24.795Z,50.80
2019-05-19T23:25:54.246Z,50.80
2019-05-19T23:28:23.699Z,50.80
2019-05-19T23:30:53.152Z,50.80
2019-05-19T23:33:23.680Z,50.80
2019-05-19T23:35:53.136Z,50.80
2019-05-19T23:38:22.671Z,50.80
2019-05-19T23:40:52.112Z,50.80
2019-05-19T23:43:21.563Z,50.80
2019-05-19T23:45:51.012Z,50.80
2019-05-19T23:48:20.466Z,50.80
2019-05-19T23:50:49.918Z,50.80
2019-05-19T23:53:19.363Z,50.80
2019-05-19T23:55:48.805Z,50.80
2019-05-19T23:58:18.268Z,50.80
